createdAt,value
2019-05-20T00:03:41.375Z,70.50
2019-05-20T00:08:44.557Z,70.30
2019-05-20T00:13:47.246Z,70.40
2019-05-20T00:18:49.957Z,70.60
2019-05-20T00:23:52.707Z,70.60
2019-05-20T00:28:55.385Z,70.10
2019-05-20T00:33:58.044Z,71.10
2019-05-20T00:39:00.782Z,70.40
2019-05-20T00:44:03.585Z,70.60
2019-05-20T00:49:06.318Z,70.60
2019-05-20T00:54:09.060Z,70.80
2019-05-20T00:59:11.796Z,71.10
2019-05-20T01:04:14.471Z,71.10
2019-05-20T01:09:17.217Z,70.70
2019-05-20T01:14:20.026Z,70.60
2019-05-20T01:19:22.758Z,71.50
2019-05-20T01:24:25.555Z,71.00
2019-05-20T01:29:28.299Z,71.00
2019-05-20T01:34:31.052Z,71.00
2019-05-20T01:39:33.812Z,70.90
2019-05-20T01:44:36.518Z,70.40
2019-05-20T01:49:39.182Z,71.10
2019-05-20T01:54:41.933Z,70.70
2019-05-20T01:59:44.610Z,70.70
2019-05-20T02:04:47.257Z,70.70
2019-05-20T02:09:49.925Z,70.70
2019-05-20T02:14:52.992Z,71.20
2019-05-20T02:19:56.097Z,71.10
2019-05-20T02:24:58.761Z,70.90
2019-05-20T02:30:01.438Z,71.10
2019-05-20T02:35:05.912Z,71.20
2019-05-20T02:40:09.385Z,71.50
2019-05-20T02:45:12.489Z,71.00
2019-05-20T02:50:15.294Z,70.80
2019-05-20T02:55:18.088Z,71.00
2019-05-20T03:00:20.745Z,71.30
2019-05-20T03:05:23.748Z,71.00
2019-05-20T03:10:26.422Z,70.80
2019-05-20T03:15:29.092Z,71.00
2019-05-20T03:20:31.827Z,70.90
2019-05-20T03:25:34.583Z,71.20
2019-05-20T03:30:37.260Z,71.40
2019-05-20T03:35:40.022Z,71.10
2019-05-20T03:40:42.752Z,71.60
2019-05-20T03:45:45.487Z,71.20
2019-05-20T03:50:48.246Z,70.90
2019-05-20T03:55:50.891Z,71.50
2019-05-20T04:00:53.569Z,71.60
2019-05-20T04:05:56.304Z,71.60
2019-05-20T04:10:59.033Z,71.40
2019-05-20T04:16:01.720Z,71.10
2019-05-20T04:21:04.577Z,70.90
2019-05-20T04:26:07.383Z,71.60
2019-05-20T04:31:10.197Z,70.90
2019-05-20T04:36:12.959Z,71.50
2019-05-20T04:41:15.639Z,70.80
2019-05-20T04:46:18.414Z,71.70
2019-05-20T04:51:21.146Z,70.50
2019-05-20T04:56:23.819Z,71.50
2019-05-20T05:01:26.475Z,70.90
2019-05-20T05:06:29.139Z,71.10
2019-05-20T05:11:31.972Z,71.10
2019-05-20T05:16:34.993Z,71.70
2019-05-20T05:21:37.736Z,71.20
2019-05-20T05:26:40.486Z,71.60
2019-05-20T05:31:43.149Z,71.60
2019-05-20T05:36:45.878Z,72.00
2019-05-20T05:41:48.661Z,71.70
2019-05-20T05:46:51.357Z,71.70
2019-05-20T05:51:54.023Z,71.20
2019-05-20T05:56:56.760Z,71.60
2019-05-20T06:01:59.502Z,72.00
2019-05-20T06:07:02.223Z,71.90
2019-05-20T06:12:04.921Z,72.20
2019-05-20T06:17:07.661Z,71.00
2019-05-20T06:22:10.403Z,71.50
2019-05-20T06:27:33.922Z,70.70
2019-05-20T06:32:36.599Z,71.80
2019-05-20T06:37:39.593Z,71.20
2019-05-20T06:42:42.327Z,71.30
2019-05-20T06:47:45.012Z,70.90
2019-05-20T06:52:47.750Z,71.70
2019-05-20T06:57:50.489Z,70.90
2019-05-20T07:02:53.154Z,71.70
2019-05-20T07:07:55.899Z,71.80
2019-05-20T07:12:58.639Z,71.00
2019-05-20T07:18:01.381Z,71.20
2019-05-20T07:23:04.124Z,71.60
2019-05-20T07:28:06.864Z,70.90
2019-05-20T07:33:09.546Z,72.20
2019-05-20T07:38:12.205Z,71.90
2019-05-20T07:43:14.877Z,71.20
2019-05-20T07:48:18.106Z,71.80
2019-05-20T07:53:21.783Z,71.40
2019-05-20T07:58:26.949Z,71.90
2019-05-20T08:03:29.782Z,72.00
2019-05-20T08:08:32.519Z,70.90
2019-05-20T08:13:35.308Z,71.50
2019-05-20T08:18:40.044Z,70.90
2019-05-20T08:23:42.780Z,70.40
2019-05-20T08:28:45.524Z,70.50
2019-05-20T08:33:48.183Z,70.40
2019-05-20T08:38:50.919Z,70.40
2019-05-20T08:43:53.593Z,70.70
2019-05-20T08:48:56.331Z,69.90
2019-05-20T08:53:59.140Z,70.40
2019-05-20T08:59:01.797Z,70.70
2019-05-20T09:04:04.485Z,70.40
2019-05-20T09:09:07.359Z,70.10
2019-05-20T09:14:10.103Z,70.20
2019-05-20T09:19:12.854Z,69.90
2019-05-20T09:24:18.836Z,70.10
2019-05-20T09:29:19.967Z,69.80
2019-05-20T09:34:23.156Z,69.10
2019-05-20T09:39:25.906Z,69.20
2019-05-20T09:44:28.580Z,68.60
2019-05-20T09:49:31.407Z,68.10
2019-05-20T09:54:34.133Z,68.70
2019-05-20T09:59:43.459Z,68.80
2019-05-20T10:04:41.181Z,67.50
2019-05-20T10:09:46.975Z,67.30
2019-05-20T10:14:52.793Z,67.20
2019-05-20T10:19:54.453Z,67.20
2019-05-20T10:24:57.193Z,67.10
2019-05-20T10:30:00.316Z,66.40
2019-05-20T10:35:04.938Z,66.60
2019-05-20T10:40:08.234Z,66.10
2019-05-20T10:45:11.052Z,66.30
2019-05-20T10:50:14.148Z,65.50
2019-05-20T10:55:17.488Z,65.00
2019-05-20T11:00:20.705Z,65.30
2019-05-20T11:05:23.434Z,65.50
2019-05-20T11:10:26.122Z,64.80
2019-05-20T11:15:28.851Z,65.00
2019-05-20T11:20:31.597Z,65.00
2019-05-20T11:25:34.769Z,65.60
2019-05-20T11:30:37.509Z,66.10
2019-05-20T11:35:40.256Z,66.40
2019-05-20T11:40:42.922Z,66.50
2019-05-20T11:45:45.721Z,65.90
2019-05-20T11:50:48.472Z,65.60
2019-05-20T11:55:51.139Z,65.80
2019-05-20T12:00:53.817Z,66.40
2019-05-20T12:05:56.503Z,65.90
2019-05-20T12:10:59.225Z,66.30
2019-05-20T12:16:01.972Z,66.20
2019-05-20T12:21:04.650Z,66.40
2019-05-20T12:26:09.032Z,65.80
2019-05-20T12:31:14.590Z,66.90
2019-05-20T12:36:17.267Z,66.10
2019-05-20T12:41:20.026Z,66.30
2019-05-20T12:46:22.831Z,66.40
2019-05-20T12:51:25.570Z,66.00
2019-05-20T12:56:28.222Z,65.50
2019-05-20T13:01:30.891Z,65.10
2019-05-20T13:06:33.640Z,64.80
2019-05-20T13:11:36.383Z,64.70
2019-05-20T13:16:39.109Z,65.60
2019-05-20T13:21:41.785Z,65.10
2019-05-20T13:26:44.869Z,65.50
2019-05-20T13:31:47.602Z,65.30
2019-05-20T13:36:50.387Z,64.80
2019-05-20T13:41:53.087Z,65.60
2019-05-20T13:46:55.922Z,64.50
2019-05-20T13:51:58.669Z,64.80
2019-05-20T13:57:01.402Z,64.80
2019-05-20T14:02:04.218Z,64.70
2019-05-20T14:07:06.974Z,64.50
2019-05-20T14:12:09.721Z,63.80
2019-05-20T14:17:12.459Z,64.00
2019-05-20T14:22:15.124Z,64.70
2019-05-20T14:27:38.735Z,65.30
2019-05-20T14:32:41.433Z,65.00
2019-05-20T14:37:44.167Z,64.60
2019-05-20T14:42:46.840Z,65.20
2019-05-20T14:47:49.585Z,65.30
2019-05-20T14:52:52.287Z,64.80
2019-05-20T14:57:55.025Z,64.50
2019-05-20T15:02:57.681Z,64.00
2019-05-20T15:08:00.499Z,64.20
2019-05-20T15:13:03.449Z,63.80
2019-05-20T15:18:06.203Z,63.80
2019-05-20T15:23:08.951Z,64.10
2019-05-20T15:28:11.622Z,64.40
2019-05-20T15:33:14.289Z,65.20
2019-05-20T15:38:17.100Z,64.20
2019-05-20T15:43:19.851Z,64.40
2019-05-20T15:48:22.568Z,64.10
2019-05-20T15:53:25.290Z,64.00
2019-05-20T15:58:27.949Z,64.10
2019-05-20T16:03:30.610Z,63.50
2019-05-20T16:08:33.343Z,63.60
2019-05-20T16:13:35.996Z,63.80
2019-05-20T16:18:39.089Z,63.60
2019-05-20T16:23:41.772Z,63.70
2019-05-20T16:28:44.486Z,64.20
2019-05-20T16:33:47.172Z,64.90
2019-05-20T16:38:49.922Z,64.10
2019-05-20T16:43:52.678Z,64.50
2019-05-20T16:48:55.367Z,65.00
2019-05-20T16:53:58.090Z,65.30
2019-05-20T16:59:00.753Z,65.30
2019-05-20T17:04:03.486Z,65.80
2019-05-20T17:09:06.761Z,65.90
2019-05-20T17:14:10.721Z,66.20
2019-05-20T17:19:13.798Z,66.10
2019-05-20T17:24:16.513Z,66.10
2019-05-20T17:29:19.250Z,66.50
2019-05-20T17:34:22.490Z,67.10
2019-05-20T17:39:25.358Z,67.30
2019-05-20T17:44:31.140Z,68.20
2019-05-20T17:49:33.948Z,67.80
2019-05-20T17:54:36.695Z,68.70
2019-05-20T17:59:39.437Z,69.20
2019-05-20T18:04:42.175Z,69.20
2019-05-20T18:09:44.996Z,69.60
2019-05-20T18:14:47.732Z,69.50
2019-05-20T18:19:50.459Z,69.60
2019-05-20T18:25:14.004Z,70.60
2019-05-20T18:30:17.108Z,70.70
2019-05-20T18:35:19.837Z,70.70
2019-05-20T18:40:22.579Z,71.00
2019-05-20T18:45:25.589Z,71.50
2019-05-20T18:50:28.483Z,71.20
2019-05-20T18:55:34.613Z,71.70
2019-05-20T19:00:35.626Z,71.80
2019-05-20T19:05:39.166Z,71.80
2019-05-20T19:10:41.901Z,71.60
2019-05-20T19:15:44.598Z,71.40
2019-05-20T19:20:47.343Z,71.60
2019-05-20T19:25:50.017Z,71.70
2019-05-20T19:30:52.833Z,71.50
2019-05-20T19:35:55.647Z,71.70
2019-05-20T19:40:58.323Z,71.60
2019-05-20T19:46:00.992Z,72.00
2019-05-20T19:51:03.996Z,72.30
2019-05-20T19:56:06.733Z,72.30
2019-05-20T20:01:09.422Z,71.50
2019-05-20T20:06:13.573Z,71.50
2019-05-20T20:11:16.245Z,71.30
2019-05-20T20:16:18.993Z,71.40
2019-05-20T20:21:21.725Z,71.40
2019-05-20T20:26:24.824Z,71.60
2019-05-20T20:31:27.557Z,71.80
2019-05-20T20:36:30.291Z,71.80
2019-05-20T20:41:32.972Z,71.80
2019-05-20T20:46:35.659Z,71.90
2019-05-20T20:51:38.333Z,71.80
2019-05-20T20:56:41.068Z,71.80
2019-05-20T21:01:43.738Z,71.90
2019-05-20T21:06:46.474Z,71.70
2019-05-20T21:11:49.227Z,72.10
2019-05-20T21:16:51.965Z,71.70
2019-05-20T21:21:54.642Z,72.40
2019-05-20T21:26:57.320Z,72.20
2019-05-20T21:31:59.976Z,72.30
2019-05-20T21:37:02.721Z,72.20
2019-05-20T21:42:05.531Z,72.70
2019-05-20T21:47:08.282Z,72.30
2019-05-20T21:52:10.958Z,72.30
2019-05-20T21:57:13.690Z,72.40
2019-05-20T22:02:16.367Z,71.80
2019-05-20T22:07:19.178Z,72.00
2019-05-20T22:12:21.947Z,71.30
2019-05-20T22:17:24.690Z,71.60
2019-05-20T22:22:27.352Z,71.70
2019-05-20T22:27:30.175Z,71.50
2019-05-20T22:32:32.922Z,71.70
2019-05-20T22:37:35.658Z,71.60
2019-05-20T22:42:38.393Z,71.60
2019-05-20T22:47:41.127Z,71.50
2019-05-20T22:52:43.833Z,72.10
2019-05-20T22:57:46.647Z,71.80
2019-05-20T23:02:49.319Z,71.90
2019-05-20T23:07:52.066Z,72.20
2019-05-20T23:12:54.802Z,72.20
2019-05-20T23:17:57.523Z,72.70
2019-05-20T23:23:00.263Z,72.40
2019-05-20T23:28:02.945Z,72.90
2019-05-20T23:33:05.934Z,72.90
2019-05-20T23:38:08.593Z,72.90
2019-05-20T23:43:11.409Z,73.00
2019-05-20T23:48:14.146Z,72.90
2019-05-20T23:53:16.882Z,73.20
2019-05-20T23:58:19.555Z,73.30
